sensor_id;sensor_type;location;lat;lon;timestamp;pressure;altitude;pressure_sealevel;temperature;humidity
51876;BME280;34054;52.100;5.116;2022-07-09T00:00:08;102704.47;;;20.22;71.22
51876;BME280;34054;52.100;5.116;2022-07-09T00:00:40;102703.09;;;20.19;71.58
51876;BME280;34054;52.100;5.116;2022-07-09T00:01:12;102704.50;;;20.17;71.76
51876;BME280;34054;52.100;5.116;2022-07-09T00:01:44;102697.31;;;20.11;71.61
51876;BME280;34054;52.100;5.116;2022-07-09T00:02:16;102697.56;;;20.14;71.54
51876;BME280;34054;52.100;5.116;2022-07-09T00:02:47;102685.19;;;20.06;71.68
51876;BME280;34054;52.100;5.116;2022-07-09T00:03:20;102700.63;;;20.13;71.98
51876;BME280;34054;52.100;5.116;2022-07-09T00:03:51;102703.66;;;20.16;71.55
51876;BME280;34054;52.100;5.116;2022-07-09T00:04:23;102686.84;;;20.07;71.84
51876;BME280;34054;52.100;5.116;2022-07-09T00:04:56;102697.88;;;20.13;71.94
51876;BME280;34054;52.100;5.116;2022-07-09T00:05:27;102696.50;;;20.20;71.84
51876;BME280;34054;52.100;5.116;2022-07-09T00:05:59;102699.50;;;20.24;71.56
51876;BME280;34054;52.100;5.116;2022-07-09T00:06:33;102700.63;;;20.23;71.41
51876;BME280;34054;52.100;5.116;2022-07-09T00:07:05;102702.81;;;20.21;71.42
51876;BME280;34054;52.100;5.116;2022-07-09T00:07:37;102696.22;;;20.17;71.64
51876;BME280;34054;52.100;5.116;2022-07-09T00:08:09;102706.94;;;20.23;71.54
51876;BME280;34054;52.100;5.116;2022-07-09T00:08:41;102699.50;;;20.19;71.54
51876;BME280;34054;52.100;5.116;2022-07-09T00:09:12;102693.47;;;20.17;71.42
51876;BME280;34054;52.100;5.116;2022-07-09T00:09:46;102699.22;;;20.05;71.83
51876;BME280;34054;52.100;5.116;2022-07-09T00:10:18;102697.31;;;20.05;71.95
51876;BME280;34054;52.100;5.116;2022-07-09T00:10:50;102700.34;;;20.09;72.09
51876;BME280;34054;52.100;5.116;2022-07-09T00:11:23;102686.56;;;20.04;71.65
51876;BME280;34054;52.100;5.116;2022-07-09T00:11:54;102673.88;;;19.98;71.71
51876;BME280;34054;52.100;5.116;2022-07-09T00:12:26;102671.09;;;19.98;71.67
51876;BME280;34054;52.100;5.116;2022-07-09T00:12:58;102693.16;;;20.13;71.93
51876;BME280;34054;52.100;5.116;2022-07-09T00:13:30;102692.06;;;20.14;71.78
51876;BME280;34054;52.100;5.116;2022-07-09T00:14:01;102693.72;;;20.10;71.96
51876;BME280;34054;52.100;5.116;2022-07-09T00:14:34;102689.88;;;20.11;71.71
51876;BME280;34054;52.100;5.116;2022-07-09T00:15:06;102687.66;;;20.08;71.70
51876;BME280;34054;52.100;5.116;2022-07-09T00:15:38;102693.16;;;20.13;71.88
51876;BME280;34054;52.100;5.116;2022-07-09T00:16:11;102692.91;;;20.04;71.77
51876;BME280;34054;52.100;5.116;2022-07-09T00:16:42;102686.84;;;19.97;71.81
51876;BME280;34054;52.100;5.116;2022-07-09T00:17:14;102685.16;;;20.01;72.25
51876;BME280;34054;52.100;5.116;2022-07-09T00:17:47;102684.91;;;20.03;72.01
51876;BME280;34054;52.100;5.116;2022-07-09T00:18:18;102690.16;;;19.99;72.39
51876;BME280;34054;52.100;5.116;2022-07-09T00:18:50;102683.53;;;19.95;72.51
51876;BME280;34054;52.100;5.116;2022-07-09T00:19:22;102689.88;;;20.01;72.42
51876;BME280;34054;52.100;5.116;2022-07-09T00:19:54;102663.41;;;19.89;72.49
51876;BME280;34054;52.100;5.116;2022-07-09T00:20:25;102683.25;;;20.02;72.60
51876;BME280;34054;52.100;5.116;2022-07-09T00:20:58;102684.06;;;20.02;72.58
51876;BME280;34054;52.100;5.116;2022-07-09T00:21:30;102673.03;;;19.92;72.33
51876;BME280;34054;52.100;5.116;2022-07-09T00:22:01;102688.78;;;20.02;72.28
51876;BME280;34054;52.100;5.116;2022-07-09T00:22:34;102688.78;;;20.02;72.32
51876;BME280;34054;52.100;5.116;2022-07-09T00:23:05;102687.66;;;20.08;71.93
51876;BME280;34054;52.100;5.116;2022-07-09T00:23:37;102690.97;;;20.10;72.08
51876;BME280;34054;52.100;5.116;2022-07-09T00:24:10;102686.28;;;20.11;71.55
51876;BME280;34054;52.100;5.116;2022-07-09T00:24:42;102686.00;;;20.07;71.90
51876;BME280;34054;52.100;5.116;2022-07-09T00:25:15;102672.22;;;19.97;71.91
51876;BME280;34054;52.100;5.116;2022-07-09T00:25:47;102688.75;;;20.07;71.95
51876;BME280;34054;52.100;5.116;2022-07-09T00:26:19;102692.91;;;20.04;72.18
51876;BME280;34054;52.100;5.116;2022-07-09T00:26:50;102682.69;;;20.05;72.09
51876;BME280;34054;52.100;5.116;2022-07-09T00:27:23;102684.38;;;19.96;72.32
51876;BME280;34054;52.100;5.116;2022-07-09T00:27:54;102691.25;;;19.98;72.29
51876;BME280;34054;52.100;5.116;2022-07-09T00:28:26;102689.31;;;19.99;72.55
51876;BME280;34054;52.100;5.116;2022-07-09T00:28:58;102691.53;;;20.02;72.23
51876;BME280;34054;52.100;5.116;2022-07-09T00:29:30;102695.09;;;20.02;72.33
51876;BME280;34054;52.100;5.116;2022-07-09T00:30:02;102689.34;;;20.04;72.09
51876;BME280;34054;52.100;5.116;2022-07-09T00:30:35;102690.16;;;20.04;72.13
51876;BME280;34054;52.100;5.116;2022-07-09T00:31:06;102691.25;;;20.03;71.87
51876;BME280;34054;52.100;5.116;2022-07-09T00:31:38;102689.06;;;19.90;72.41
51876;BME280;34054;52.100;5.116;2022-07-09T00:32:10;102685.69;;;19.72;72.67
51876;BME280;34054;52.100;5.116;2022-07-09T00:32:42;102680.72;;;19.64;72.95
51876;BME280;34054;52.100;5.116;2022-07-09T00:33:13;102682.66;;;19.64;73.12
51876;BME280;34054;52.100;5.116;2022-07-09T00:33:46;102689.28;;;19.68;73.66
51876;BME280;34054;52.100;5.116;2022-07-09T00:34:17;102687.09;;;19.70;73.27
51876;BME280;34054;52.100;5.116;2022-07-09T00:34:49;102683.47;;;19.69;73.48
51876;BME280;34054;52.100;5.116;2022-07-09T00:35:21;102679.88;;;19.64;73.82
51876;BME280;34054;52.100;5.116;2022-07-09T00:35:53;102685.97;;;19.66;73.79
51876;BME280;34054;52.100;5.116;2022-07-09T00:36:25;102679.34;;;19.56;73.77
51876;BME280;34054;52.100;5.116;2022-07-09T00:36:57;102674.91;;;19.45;74.28
51876;BME280;34054;52.100;5.116;2022-07-09T00:37:29;102683.44;;;19.43;74.84
51876;BME280;34054;52.100;5.116;2022-07-09T00:38:00;102670.50;;;19.44;74.62
51876;BME280;34054;52.100;5.116;2022-07-09T00:38:32;102639.03;;;19.14;74.82
51876;BME280;34054;52.100;5.116;2022-07-09T00:39:04;102681.22;;;19.30;75.32
51876;BME280;34054;52.100;5.116;2022-07-09T00:39:36;102680.34;;;19.09;75.93
51876;BME280;34054;52.100;5.116;2022-07-09T00:40:09;102680.03;;;19.05;76.33
51876;BME280;34054;52.100;5.116;2022-07-09T00:40:43;102674.25;;;19.02;76.65
51876;BME280;34054;52.100;5.116;2022-07-09T00:41:15;102663.25;;;19.02;76.79
51876;BME280;34054;52.100;5.116;2022-07-09T00:41:46;102677.63;;;19.19;76.76
51876;BME280;34054;52.100;5.116;2022-07-09T00:42:19;102681.22;;;19.30;76.81
51876;BME280;34054;52.100;5.116;2022-07-09T00:42:50;102673.22;;;19.28;76.27
51876;BME280;34054;52.100;5.116;2022-07-09T00:43:22;102688.09;;;19.27;76.17
51876;BME280;34054;52.100;5.116;2022-07-09T00:43:56;102673.22;;;19.18;76.33
51876;BME280;34054;52.100;5.116;2022-07-09T00:44:27;102687.81;;;19.29;76.07
51876;BME280;34054;52.100;5.116;2022-07-09T00:44:59;102684.78;;;19.30;76.12
51876;BME280;34054;52.100;5.116;2022-07-09T00:45:30;102687.81;;;19.34;76.41
51876;BME280;34054;52.100;5.116;2022-07-09T00:46:03;102674.63;;;19.31;76.12
51876;BME280;34054;52.100;5.116;2022-07-09T00:46:34;102684.53;;;19.42;76.20
51876;BME280;34054;52.100;5.116;2022-07-09T00:47:07;102686.47;;;19.47;76.04
51876;BME280;34054;52.100;5.116;2022-07-09T00:47:40;102690.34;;;19.46;75.78
51876;BME280;34054;52.100;5.116;2022-07-09T00:48:12;102680.97;;;19.42;75.83
51876;BME280;34054;52.100;5.116;2022-07-09T00:48:43;102690.63;;;19.55;75.85
51876;BME280;34054;52.100;5.116;2022-07-09T00:49:17;102694.50;;;19.59;75.57
51876;BME280;34054;52.100;5.116;2022-07-09T00:49:49;102693.38;;;19.60;75.39
51876;BME280;34054;52.100;5.116;2022-07-09T00:50:21;102690.38;;;19.61;75.40
51876;BME280;34054;52.100;5.116;2022-07-09T00:50:54;102693.66;;;19.64;75.35
51876;BME280;34054;52.100;5.116;2022-07-09T00:51:26;102692.00;;;19.62;75.08
51876;BME280;34054;52.100;5.116;2022-07-09T00:51:58;102695.31;;;19.65;75.30
51876;BME280;34054;52.100;5.116;2022-07-09T00:52:32;102694.50;;;19.64;75.21
51876;BME280;34054;52.100;5.116;2022-07-09T00:53:06;102697.00;;;19.66;75.24
51876;BME280;34054;52.100;5.116;2022-07-09T00:53:40;102690.66;;;19.65;75.16
51876;BME280;34054;52.100;5.116;2022-07-09T00:54:13;102687.63;;;19.67;74.88
51876;BME280;34054;52.100;5.116;2022-07-09T00:54:45;102695.88;;;19.67;74.91
51876;BME280;34054;52.100;5.116;2022-07-09T00:55:17;102689.53;;;19.66;74.59
51876;BME280;34054;52.100;5.116;2022-07-09T00:55:52;102695.88;;;19.67;74.68
51876;BME280;34054;52.100;5.116;2022-07-09T00:56:27;102694.50;;;19.64;74.71
51876;BME280;34054;52.100;5.116;2022-07-09T00:57:02;102691.19;;;19.67;74.58
51876;BME280;34054;52.100;5.116;2022-07-09T00:57:38;102689.28;;;19.68;74.49
51876;BME280;34054;52.100;5.116;2022-07-09T00:58:11;102691.47;;;19.71;74.46
51876;BME280;34054;52.100;5.116;2022-07-09T00:58:46;102686.81;;;19.71;74.23
51876;BME280;34054;52.100;5.116;2022-07-09T00:59:20;102691.78;;;19.74;74.20
51876;BME280;34054;52.100;5.116;2022-07-09T00:59:52;102684.59;;;19.73;74.04
51876;BME280;34054;52.100;5.116;2022-07-09T01:00:24;102689.28;;;19.73;73.82
51876;BME280;34054;52.100;5.116;2022-07-09T01:00:57;102693.41;;;19.75;74.08
51876;BME280;34054;52.100;5.116;2022-07-09T01:01:29;102692.59;;;19.75;73.98
51876;BME280;34054;52.100;5.116;2022-07-09T01:02:01;102687.34;;;19.73;73.72
51876;BME280;34054;52.100;5.116;2022-07-09T01:02:34;102686.25;;;19.74;73.75
51876;BME280;34054;52.100;5.116;2022-07-09T01:03:06;102690.38;;;19.77;73.51
51876;BME280;34054;52.100;5.116;2022-07-09T01:03:37;102690.38;;;19.82;73.47
51876;BME280;34054;52.100;5.116;2022-07-09T01:04:10;102684.88;;;19.77;73.54
51876;BME280;34054;52.100;5.116;2022-07-09T01:04:42;102683.78;;;19.78;73.27
51876;BME280;34054;52.100;5.116;2022-07-09T01:05:14;102676.34;;;19.73;73.37
51876;BME280;34054;52.100;5.116;2022-07-09T01:05:46;102674.38;;;19.74;73.72
51876;BME280;34054;52.100;5.116;2022-07-09T01:06:18;102678.81;;;19.75;73.49
51876;BME280;34054;52.100;5.116;2022-07-09T01:06:49;102669.72;;;19.74;73.48
51876;BME280;34054;52.100;5.116;2022-07-09T01:07:21;102674.13;;;19.65;74.20
51876;BME280;34054;52.100;5.116;2022-07-09T01:07:53;102670.53;;;19.59;74.51
51876;BME280;34054;52.100;5.116;2022-07-09T01:08:25;102672.72;;;19.57;74.44
51876;BME280;34054;52.100;5.116;2022-07-09T01:08:57;102675.47;;;19.62;74.45
51876;BME280;34054;52.100;5.116;2022-07-09T01:09:30;102674.94;;;19.60;74.63
51876;BME280;34054;52.100;5.116;2022-07-09T01:10:03;102657.28;;;19.46;74.95
51876;BME280;34054;52.100;5.116;2022-07-09T01:10:36;102671.06;;;19.56;74.93
51876;BME280;34054;52.100;5.116;2022-07-09T01:11:10;102660.06;;;19.51;74.88
51876;BME280;34054;52.100;5.116;2022-07-09T01:11:42;102671.09;;;19.61;75.14
51876;BME280;34054;52.100;5.116;2022-07-09T01:12:14;102667.22;;;19.57;75.12
51876;BME280;34054;52.100;5.116;2022-07-09T01:12:47;102666.13;;;19.53;75.09
51876;BME280;34054;52.100;5.116;2022-07-09T01:13:18;102668.03;;;19.58;75.23
51876;BME280;34054;52.100;5.116;2022-07-09T01:13:50;102667.75;;;19.44;75.44
51876;BME280;34054;52.100;5.116;2022-07-09T01:14:23;102661.41;;;19.38;75.58
51876;BME280;34054;52.100;5.116;2022-07-09T01:14:55;102661.38;;;19.33;75.61
51876;BME280;34054;52.100;5.116;2022-07-09T01:15:27;102619.94;;;18.87;76.58
51876;BME280;34054;52.100;5.116;2022-07-09T01:15:59;102659.78;;;18.79;78.19
51876;BME280;34054;52.100;5.116;2022-07-09T01:16:32;102652.59;;;18.67;78.56
51876;BME280;34054;52.100;5.116;2022-07-09T01:17:05;102658.41;;;18.71;78.91
51876;BME280;34054;52.100;5.116;2022-07-09T01:17:38;102650.66;;;18.63;79.20
51876;BME280;34054;52.100;5.116;2022-07-09T01:18:10;102659.50;;;18.75;79.12
51876;BME280;34054;52.100;5.116;2022-07-09T01:18:43;102649.34;;;18.76;79.03
51876;BME280;34054;52.100;5.116;2022-07-09T01:19:17;102662.03;;;18.87;78.94
51876;BME280;34054;52.100;5.116;2022-07-09T01:19:48;102669.00;;;18.95;78.95
51876;BME280;34054;52.100;5.116;2022-07-09T01:20:23;102655.22;;;18.95;78.57
51876;BME280;34054;52.100;5.116;2022-07-09T01:20:56;102672.31;;;19.02;78.55
51876;BME280;34054;52.100;5.116;2022-07-09T01:21:27;102667.63;;;19.03;78.80
51876;BME280;34054;52.100;5.116;2022-07-09T01:21:59;102662.16;;;19.08;78.69
51876;BME280;34054;52.100;5.116;2022-07-09T01:22:32;102664.63;;;19.09;78.41
51876;BME280;34054;52.100;5.116;2022-07-09T01:23:04;102661.09;;;19.19;78.11
51876;BME280;34054;52.100;5.116;2022-07-09T01:23:36;102662.72;;;19.20;78.11
51876;BME280;34054;52.100;5.116;2022-07-09T01:24:08;102660.00;;;19.25;78.08
51876;BME280;34054;52.100;5.116;2022-07-09T01:24:40;102664.94;;;19.23;78.04
51876;BME280;34054;52.100;5.116;2022-07-09T01:25:15;102655.59;;;19.29;77.61
51876;BME280;34054;52.100;5.116;2022-07-09T01:25:49;102665.22;;;19.32;77.58
51876;BME280;34054;52.100;5.116;2022-07-09T01:26:21;102660.56;;;19.33;77.54
51876;BME280;34054;52.100;5.116;2022-07-09T01:26:54;102668.25;;;19.30;77.50
51876;BME280;34054;52.100;5.116;2022-07-09T01:27:27;102655.34;;;19.31;77.07
51876;BME280;34054;52.100;5.116;2022-07-09T01:27:58;102662.78;;;19.36;77.35
51876;BME280;34054;52.100;5.116;2022-07-09T01:28:30;102665.81;;;19.39;76.86
51876;BME280;34054;52.100;5.116;2022-07-09T01:29:02;102656.97;;;19.32;77.19
51876;BME280;34054;52.100;5.116;2022-07-09T01:29:34;102666.63;;;19.35;77.09
51876;BME280;34054;52.100;5.116;2022-07-09T01:30:06;102658.91;;;19.37;76.73
51876;BME280;34054;52.100;5.116;2022-07-09T01:30:40;102666.34;;;19.41;76.84
51876;BME280;34054;52.100;5.116;2022-07-09T01:31:12;102664.44;;;19.42;76.69
51876;BME280;34054;52.100;5.116;2022-07-09T01:31:44;102657.84;;;19.43;76.73
51876;BME280;34054;52.100;5.116;2022-07-09T01:32:17;102645.69;;;19.34;76.46
51876;BME280;34054;52.100;5.116;2022-07-09T01:32:49;102670.22;;;19.45;76.28
51876;BME280;34054;52.100;5.116;2022-07-09T01:33:20;102665.28;;;19.48;76.38
51876;BME280;34054;52.100;5.116;2022-07-09T01:33:53;102669.69;;;19.49;76.30
51876;BME280;34054;52.100;5.116;2022-07-09T01:34:24;102664.44;;;19.47;76.31
51876;BME280;34054;52.100;5.116;2022-07-09T01:34:56;102666.38;;;19.46;76.19
51876;BME280;34054;52.100;5.116;2022-07-09T01:35:30;102668.84;;;19.48;76.27
51876;BME280;34054;52.100;5.116;2022-07-09T01:36:02;102661.69;;;19.42;75.90
51876;BME280;34054;52.100;5.116;2022-07-09T01:36:34;102665.81;;;19.50;76.04
51876;BME280;34054;52.100;5.116;2022-07-09T01:37:07;102664.47;;;19.52;75.99
51876;BME280;34054;52.100;5.116;2022-07-09T01:37:38;102666.66;;;19.55;75.79
51876;BME280;34054;52.100;5.116;2022-07-09T01:38:10;102655.06;;;19.48;75.50
51876;BME280;34054;52.100;5.116;2022-07-09T01:38:42;102660.03;;;19.56;75.61
51876;BME280;34054;52.100;5.116;2022-07-09T01:39:14;102645.44;;;19.40;75.41
51876;BME280;34054;52.100;5.116;2022-07-09T01:39:46;102655.63;;;19.55;75.74
51876;BME280;34054;52.100;5.116;2022-07-09T01:40:22;102623.09;;;19.37;75.46
51876;BME280;34054;52.100;5.116;2022-07-09T01:40:54;102666.13;;;19.58;75.72
51876;BME280;34054;52.100;5.116;2022-07-09T01:41:26;102660.59;;;19.58;75.66
51876;BME280;34054;52.100;5.116;2022-07-09T01:41:58;102650.41;;;19.54;75.56
51876;BME280;34054;52.100;5.116;2022-07-09T01:42:30;102653.72;;;19.56;75.43
51876;BME280;34054;52.100;5.116;2022-07-09T01:43:01;102653.44;;;19.62;75.24
51876;BME280;34054;52.100;5.116;2022-07-09T01:43:34;102652.06;;;19.60;75.24
51876;BME280;34054;52.100;5.116;2022-07-09T01:44:06;102658.41;;;19.60;75.31
51876;BME280;34054;52.100;5.116;2022-07-09T01:44:38;102647.09;;;19.62;75.44
51876;BME280;34054;52.100;5.116;2022-07-09T01:45:11;102650.66;;;19.62;75.43
51876;BME280;34054;52.100;5.116;2022-07-09T01:45:42;102648.19;;;19.66;75.09
51876;BME280;34054;52.100;5.116;2022-07-09T01:46:14;102634.44;;;19.56;74.90
51876;BME280;34054;52.100;5.116;2022-07-09T01:46:46;102652.06;;;19.65;74.71
51876;BME280;34054;52.100;5.116;2022-07-09T01:47:18;102652.63;;;19.57;75.20
51876;BME280;34054;52.100;5.116;2022-07-09T01:47:49;102643.78;;;19.55;75.32
51876;BME280;34054;52.100;5.116;2022-07-09T01:48:21;102648.47;;;19.54;75.62
51876;BME280;34054;52.100;5.116;2022-07-09T01:48:53;102647.09;;;19.57;75.33
51876;BME280;34054;52.100;5.116;2022-07-09T01:49:25;102648.47;;;19.59;75.15
51876;BME280;34054;52.100;5.116;2022-07-09T01:49:56;102650.69;;;19.57;75.48
51876;BME280;34054;52.100;5.116;2022-07-09T01:50:30;102644.34;;;19.57;75.33
51876;BME280;34054;52.100;5.116;2022-07-09T01:51:03;102652.34;;;19.58;75.58
51876;BME280;34054;52.100;5.116;2022-07-09T01:51:34;102653.44;;;19.62;75.40
51876;BME280;34054;52.100;5.116;2022-07-09T01:52:07;102646.28;;;19.61;75.22
51876;BME280;34054;52.100;5.116;2022-07-09T01:52:39;102644.63;;;19.50;75.97
51876;BME280;34054;52.100;5.116;2022-07-09T01:53:12;102650.69;;;19.52;76.10
51876;BME280;34054;52.100;5.116;2022-07-09T01:53:44;102642.41;;;19.52;76.17
51876;BME280;34054;52.100;5.116;2022-07-09T01:54:17;102645.69;;;19.54;76.38
51876;BME280;34054;52.100;5.116;2022-07-09T01:54:48;102635.78;;;19.48;76.31
51876;BME280;34054;52.100;5.116;2022-07-09T01:55:21;102647.66;;;19.54;76.45
51876;BME280;34054;52.100;5.116;2022-07-09T01:55:52;102640.75;;;19.51;76.31
51876;BME280;34054;52.100;5.116;2022-07-09T01:56:24;102639.63;;;19.47;76.63
51876;BME280;34054;52.100;5.116;2022-07-09T01:56:56;102641.84;;;19.55;76.31
51876;BME280;34054;52.100;5.116;2022-07-09T01:57:28;102646.00;;;19.63;76.03
51876;BME280;34054;52.100;5.116;2022-07-09T01:58:00;102634.41;;;19.61;75.92
51876;BME280;34054;52.100;5.116;2022-07-09T01:58:32;102640.75;;;19.56;75.95
51876;BME280;34054;52.100;5.116;2022-07-09T01:59:04;102643.22;;;19.58;75.89
51876;BME280;34054;52.100;5.116;2022-07-09T01:59:35;102641.84;;;19.55;76.05
51876;BME280;34054;52.100;5.116;2022-07-09T02:00:08;102624.50;;;19.44;75.87
51876;BME280;34054;52.100;5.116;2022-07-09T02:00:41;102641.03;;;19.44;76.25
51876;BME280;34054;52.100;5.116;2022-07-09T02:01:12;102626.13;;;19.35;76.41
51876;BME280;34054;52.100;5.116;2022-07-09T02:01:45;102633.84;;;19.43;76.55
51876;BME280;34054;52.100;5.116;2022-07-09T02:02:17;102632.47;;;19.46;76.13
51876;BME280;34054;52.100;5.116;2022-07-09T02:02:49;102639.09;;;19.40;76.54
51876;BME280;34054;52.100;5.116;2022-07-09T02:03:21;102640.44;;;19.32;77.06
51876;BME280;34054;52.100;5.116;2022-07-09T02:03:53;102638.25;;;19.29;77.10
51876;BME280;34054;52.100;5.116;2022-07-09T02:04:25;102637.97;;;19.30;77.51
51876;BME280;34054;52.100;5.116;2022-07-09T02:04:57;102638.25;;;19.29;77.73
51876;BME280;34054;52.100;5.116;2022-07-09T02:05:30;102633.28;;;19.26;77.77
51876;BME280;34054;52.100;5.116;2022-07-09T02:06:02;102639.34;;;19.33;77.80
51876;BME280;34054;52.100;5.116;2022-07-09T02:06:34;102634.09;;;19.37;77.48
51876;BME280;34054;52.100;5.116;2022-07-09T02:07:06;102626.13;;;19.35;77.37
51876;BME280;34054;52.100;5.116;2022-07-09T02:07:38;102634.41;;;19.40;77.34
51876;BME280;34054;52.100;5.116;2022-07-09T02:08:09;102633.03;;;19.43;77.33
51876;BME280;34054;52.100;5.116;2022-07-09T02:08:42;102628.38;;;19.49;77.46
51876;BME280;34054;52.100;5.116;2022-07-09T02:09:13;102629.19;;;19.44;76.72
51876;BME280;34054;52.100;5.116;2022-07-09T02:09:45;102629.72;;;19.41;76.81
51876;BME280;34054;52.100;5.116;2022-07-09T02:10:20;102624.47;;;19.29;76.86
51876;BME280;34054;52.100;5.116;2022-07-09T02:10:52;102631.06;;;19.28;77.02
51876;BME280;34054;52.100;5.116;2022-07-09T02:11:23;102629.69;;;19.30;77.01
51876;BME280;34054;52.100;5.116;2022-07-09T02:11:56;102628.03;;;19.24;77.50
51876;BME280;34054;52.100;5.116;2022-07-09T02:12:27;102608.75;;;19.09;77.64
51876;BME280;34054;52.100;5.116;2022-07-09T02:12:59;102631.09;;;19.23;77.82
51876;BME280;34054;52.100;5.116;2022-07-09T02:13:30;102626.91;;;19.20;77.78
51876;BME280;34054;52.100;5.116;2022-07-09T02:14:03;102626.38;;;19.23;77.78
51876;BME280;34054;52.100;5.116;2022-07-09T02:14:35;102629.94;;;19.24;77.84
51876;BME280;34054;52.100;5.116;2022-07-09T02:15:07;102623.09;;;19.26;78.07
51876;BME280;34054;52.100;5.116;2022-07-09T02:15:41;102626.38;;;19.28;77.71
51876;BME280;34054;52.100;5.116;2022-07-09T02:16:13;102625.28;;;19.29;77.61
51876;BME280;34054;52.100;5.116;2022-07-09T02:16:44;102631.09;;;19.23;77.87
51876;BME280;34054;52.100;5.116;2022-07-09T02:17:17;102626.66;;;19.22;78.00
51876;BME280;34054;52.100;5.116;2022-07-09T02:17:48;102631.06;;;19.28;78.29
51876;BME280;34054;52.100;5.116;2022-07-09T02:18:20;102605.41;;;19.12;78.00
51876;BME280;34054;52.100;5.116;2022-07-09T02:18:52;102631.06;;;19.28;78.03
51876;BME280;34054;52.100;5.116;2022-07-09T02:19:24;102633.81;;;19.33;77.93
51876;BME280;34054;52.100;5.116;2022-07-09T02:19:55;102636.03;;;19.36;78.05
51876;BME280;34054;52.100;5.116;2022-07-09T02:20:28;102625.84;;;19.32;77.60
51876;BME280;34054;52.100;5.116;2022-07-09T02:21:01;102636.34;;;19.35;77.75
51876;BME280;34054;52.100;5.116;2022-07-09T02:21:33;102640.47;;;19.37;77.62
51876;BME280;34054;52.100;5.116;2022-07-09T02:22:06;102626.97;;;19.36;77.48
51876;BME280;34054;52.100;5.116;2022-07-09T02:22:37;102638.81;;;19.36;77.40
51876;BME280;34054;52.100;5.116;2022-07-09T02:23:09;102632.47;;;19.36;77.64
51876;BME280;34054;52.100;5.116;2022-07-09T02:23:42;102636.03;;;19.36;77.64
51876;BME280;34054;52.100;5.116;2022-07-09T02:24:13;102626.41;;;19.39;77.55
51876;BME280;34054;52.100;5.116;2022-07-09T02:24:45;102626.16;;;19.45;77.02
51876;BME280;34054;52.100;5.116;2022-07-09T02:25:16;102606.28;;;19.28;76.88
51876;BME280;34054;52.100;5.116;2022-07-09T02:25:49;102631.94;;;19.44;76.56
51876;BME280;34054;52.100;5.116;2022-07-09T02:26:20;102626.97;;;19.41;76.65
51876;BME280;34054;52.100;5.116;2022-07-09T02:26:52;102626.69;;;19.37;76.63
51876;BME280;34054;52.100;5.116;2022-07-09T02:27:24;102624.47;;;19.34;76.94
51876;BME280;34054;52.100;5.116;2022-07-09T02:27:56;102626.97;;;19.36;76.73
51876;BME280;34054;52.100;5.116;2022-07-09T02:28:28;102628.06;;;19.35;76.86
51876;BME280;34054;52.100;5.116;2022-07-09T02:29:01;102630.78;;;19.24;77.14
51876;BME280;34054;52.100;5.116;2022-07-09T02:29:33;102628.00;;;19.14;77.46
51876;BME280;34054;52.100;5.116;2022-07-09T02:30:05;102627.16;;;19.08;77.58
51876;BME280;34054;52.100;5.116;2022-07-09T02:30:38;102626.88;;;19.05;78.09
51876;BME280;34054;52.100;5.116;2022-07-09T02:31:10;102620.56;;;19.09;78.20
51876;BME280;34054;52.100;5.116;2022-07-09T02:31:43;102620.28;;;19.11;78.12
51876;BME280;34054;52.100;5.116;2022-07-09T02:32:15;102627.72;;;19.15;78.08
51876;BME280;34054;52.100;5.116;2022-07-09T02:32:47;102630.22;;;19.17;78.05
51876;BME280;34054;52.100;5.116;2022-07-09T02:33:18;102623.59;;;19.13;78.24
51876;BME280;34054;52.100;5.116;2022-07-09T02:33:51;102628.84;;;19.20;78.00
51876;BME280;34054;52.100;5.116;2022-07-09T02:34:23;102629.13;;;19.23;77.99
51876;BME280;34054;52.100;5.116;2022-07-09T02:34:55;102620.06;;;19.23;77.98
51876;BME280;34054;52.100;5.116;2022-07-09T02:35:27;102629.41;;;19.27;77.96
51876;BME280;34054;52.100;5.116;2022-07-09T02:36:00;102625.56;;;19.28;78.06
51876;BME280;34054;52.100;5.116;2022-07-09T02:36:32;102628.59;;;19.32;77.76
51876;BME280;34054;52.100;5.116;2022-07-09T02:37:04;102623.63;;;19.28;77.47
51876;BME280;34054;52.100;5.116;2022-07-09T02:37:36;102619.50;;;19.21;77.62
51876;BME280;34054;52.100;5.116;2022-07-09T02:38:09;102623.63;;;19.23;77.80
51876;BME280;34054;52.100;5.116;2022-07-09T02:38:40;102622.53;;;19.24;77.84
51876;BME280;34054;52.100;5.116;2022-07-09T02:39:12;102627.22;;;19.29;77.66
51876;BME280;34054;52.100;5.116;2022-07-09T02:39:44;102618.41;;;19.32;77.77
51876;BME280;34054;52.100;5.116;2022-07-09T02:40:16;102625.03;;;19.31;77.67
51876;BME280;34054;52.100;5.116;2022-07-09T02:40:48;102627.78;;;19.31;77.41
51876;BME280;34054;52.100;5.116;2022-07-09T02:41:20;102625.28;;;19.24;77.47
51876;BME280;34054;52.100;5.116;2022-07-09T02:41:52;102617.28;;;19.18;77.74
51876;BME280;34054;52.100;5.116;2022-07-09T02:42:23;102615.63;;;19.11;77.87
51876;BME280;34054;52.100;5.116;2022-07-09T02:42:56;102618.09;;;19.13;78.25
51876;BME280;34054;52.100;5.116;2022-07-09T02:43:28;102618.38;;;19.11;78.12
51876;BME280;34054;52.100;5.116;2022-07-09T02:43:59;102611.22;;;19.15;78.46
51876;BME280;34054;52.100;5.116;2022-07-09T02:44:32;102615.63;;;19.17;78.20
51876;BME280;34054;52.100;5.116;2022-07-09T02:45:04;102604.59;;;19.11;78.23
51876;BME280;34054;52.100;5.116;2022-07-09T02:46:11;102616.41;;;18.96;78.70
51876;BME280;34054;52.100;5.116;2022-07-09T02:46:44;102608.06;;;18.86;78.95
51876;BME280;34054;52.100;5.116;2022-07-09T02:47:15;102612.53;;;18.92;79.26
51876;BME280;34054;52.100;5.116;2022-07-09T02:47:48;102611.47;;;18.93;79.39
51876;BME280;34054;52.100;5.116;2022-07-09T02:48:19;102609.50;;;18.94;79.59
51876;BME280;34054;52.100;5.116;2022-07-09T02:48:51;102607.56;;;18.94;79.35